Time;durP1;ratioP1;P1;durP2;ratioP2;P2;SDS_P1;SDS_P2;PMS_P1;PMS_P2;Temp;Humidity;BMP_temperature;BMP_pressure;BME280_temperature;BME280_humidity;BME280_pressure;Samples;Min_cycle;Max_cycle;Signal;HPM_P1;HPM_P2
2022/05/06 00:01:46;;;;;;;23.65;10.10;;;9.30;99.90;;;;;;5017431;28;20029;-79
2022/05/06 00:04:14;;;;;;;21.92;10.75;;;9.30;99.90;;;;;;5035089;28;20123;-79
2022/05/06 00:06:39;;;;;;;21.17;9.95;;;9.30;99.90;;;;;;5034680;28;20044;-79
2022/05/06 00:09:05;;;;;;;21.83;11.15;;;9.20;99.90;;;;;;5034704;28;20127;-79
2022/05/06 00:11:31;;;;;;;23.60;11.52;;;9.20;99.90;;;;;;5034367;28;20140;-79
2022/05/06 00:13:57;;;;;;;26.65;11.30;;;9.10;99.90;;;;;;5034618;28;20041;-79
2022/05/06 00:16:24;;;;;;;28.55;12.20;;;9.10;99.90;;;;;;5034726;28;20455;-79
2022/05/06 00:18:51;;;;;;;22.83;10.48;;;9.10;99.90;;;;;;5034221;28;20416;-79
2022/05/06 00:21:17;;;;;;;22.67;10.80;;;9.10;99.90;;;;;;5034202;28;20045;-79
2022/05/06 00:23:42;;;;;;;22.08;10.00;;;9.00;99.90;;;;;;5034482;28;20107;-79
2022/05/06 00:26:09;;;;;;;20.98;11.02;;;9.00;99.90;;;;;;5034289;28;20175;-79
2022/05/06 00:28:35;;;;;;;22.33;10.35;;;8.90;99.90;;;;;;5034387;28;20075;-78
2022/05/06 00:31:02;;;;;;;18.08;10.27;;;8.90;99.90;;;;;;5033924;28;20041;-79
2022/05/06 00:33:28;;;;;;;21.05;10.10;;;8.90;99.90;;;;;;5034178;28;20447;-79
2022/05/06 00:35:55;;;;;;;23.45;11.02;;;8.90;99.90;;;;;;5034248;28;20063;-79
2022/05/06 00:38:21;;;;;;;19.42;10.40;;;8.90;99.90;;;;;;5052187;28;20045;-79
2022/05/06 00:40:47;;;;;;;20.77;10.10;;;8.90;99.90;;;;;;5034085;28;20586;-78
2022/05/06 00:43:13;;;;;;;22.55;10.30;;;8.90;99.90;;;;;;5034194;28;20040;-78
2022/05/06 00:45:53;;;;;;;24.15;11.18;;;8.80;99.90;;;;;;5034087;28;20205;-79
2022/05/06 00:48:31;;;;;;;19.65;10.75;;;8.80;99.90;;;;;;5033924;28;20048;-79
2022/05/06 00:50:59;;;;;;;18.67;8.57;;;8.80;99.90;;;;;;5033512;28;20052;-79
2022/05/06 00:53:25;;;;;;;23.52;11.20;;;8.70;99.90;;;;;;5033708;28;20049;-79
2022/05/06 00:55:52;;;;;;;19.80;10.57;;;8.70;99.90;;;;;;5034144;28;20124;-79
2022/05/06 00:58:19;;;;;;;22.35;11.25;;;8.70;99.90;;;;;;5033638;28;20123;-79
2022/05/06 01:00:45;;;;;;;21.45;10.38;;;8.70;99.90;;;;;;5033510;28;20090;-79
2022/05/06 01:03:11;;;;;;;24.95;9.73;;;8.60;99.90;;;;;;5033742;28;20041;-79
2022/05/06 01:05:38;;;;;;;28.02;11.63;;;8.60;99.90;;;;;;5033675;28;20162;-79
2022/05/06 01:08:05;;;;;;;29.38;13.10;;;8.60;99.90;;;;;;5033930;28;20397;-79
2022/05/06 01:10:31;;;;;;;23.75;9.95;;;8.60;99.90;;;;;;5033426;28;20128;-79
2022/05/06 01:12:57;;;;;;;24.50;9.20;;;8.60;99.90;;;;;;5033697;28;20494;-79
2022/05/06 01:15:26;;;;;;;24.65;11.02;;;8.50;99.90;;;;;;5033863;28;20116;-79
2022/05/06 01:17:53;;;;;;;25.92;11.05;;;8.50;99.90;;;;;;5033330;28;20090;-79
2022/05/06 01:20:20;;;;;;;21.40;10.57;;;8.50;99.90;;;;;;5032988;28;20072;-79
2022/05/06 01:22:48;;;;;;;20.63;10.80;;;8.50;99.90;;;;;;5033647;28;20099;-79
2022/05/06 01:25:15;;;;;;;23.52;10.02;;;8.50;99.90;;;;;;5033449;28;20848;-79
2022/05/06 01:28:01;;;;;;;21.90;9.95;;;8.40;99.90;;;;;;5033350;28;20144;-79
2022/05/06 01:30:31;;;;;;;20.48;10.13;;;8.40;99.90;;;;;;5033064;28;20041;-79
2022/05/06 01:32:59;;;;;;;23.58;9.70;;;8.30;99.90;;;;;;5033057;28;20373;-79
2022/05/06 01:35:26;;;;;;;23.52;10.63;;;8.30;99.90;;;;;;5033001;28;20040;-79
2022/05/06 01:37:54;;;;;;;21.58;10.77;;;8.30;99.90;;;;;;5032642;28;20033;-79
2022/05/06 01:40:21;;;;;;;22.83;10.68;;;8.30;99.90;;;;;;5032636;28;20111;-78
2022/05/06 01:42:50;;;;;;;20.10;8.98;;;8.30;99.90;;;;;;5016635;28;20106;-79
2022/05/06 01:45:19;;;;;;;19.13;9.68;;;8.30;99.90;;;;;;5033017;28;20716;-78
2022/05/06 01:47:45;;;;;;;18.52;9.93;;;8.20;99.90;;;;;;5032857;28;20041;-78
2022/05/06 01:50:12;;;;;;;32.17;10.75;;;8.20;99.90;;;;;;5032786;28;20087;-79
2022/05/06 01:52:40;;;;;;;19.92;9.45;;;8.20;99.90;;;;;;5034217;28;20051;-78
2022/05/06 01:55:09;;;;;;;18.88;9.43;;;8.10;99.90;;;;;;5052996;28;20043;-79
2022/05/06 01:57:35;;;;;;;22.80;9.07;;;8.10;99.90;;;;;;5044246;28;20056;-79
2022/05/06 02:00:00;;;;;;;20.27;9.55;;;8.10;99.90;;;;;;5032479;28;20084;-78
2022/05/06 02:02:26;;;;;;;20.25;9.90;;;8.10;99.90;;;;;;5032702;28;20476;-78
2022/05/06 02:07:36;;;;;;;21.50;9.82;;;8.00;99.90;;;;;;5032700;28;20049;-79
2022/05/06 02:10:02;;;;;;;21.38;9.52;;;8.00;99.90;;;;;;5032417;28;20073;-79
2022/05/06 02:12:28;;;;;;;21.30;10.13;;;8.00;99.90;;;;;;5050752;28;20059;-79
2022/05/06 02:14:53;;;;;;;24.05;11.25;;;8.00;99.90;;;;;;5032741;28;20070;-78
2022/05/06 02:17:19;;;;;;;19.58;10.00;;;8.00;99.90;;;;;;5033119;28;20120;-79
2022/05/06 02:19:44;;;;;;;24.45;10.55;;;7.90;99.90;;;;;;5031947;28;20132;-79
2022/05/06 02:22:10;;;;;;;21.88;10.90;;;8.00;99.90;;;;;;5032566;28;20040;-81
2022/05/06 02:24:35;;;;;;;20.80;9.60;;;8.00;99.90;;;;;;5033538;28;20109;-79
2022/05/06 02:27:01;;;;;;;24.25;10.27;;;7.90;99.90;;;;;;5036582;28;20044;-79
2022/05/06 02:29:26;;;;;;;23.95;11.00;;;7.80;99.90;;;;;;5036087;28;20611;-80
2022/05/06 02:34:36;;;;;;;20.73;9.95;;;7.80;99.90;;;;;;5036465;28;20132;-78
2022/05/06 02:37:01;;;;;;;24.95;11.35;;;7.80;99.90;;;;;;5019827;28;20120;-79
2022/05/06 02:39:27;;;;;;;24.52;11.13;;;7.80;99.90;;;;;;5035796;28;20466;-82
2022/05/06 02:41:52;;;;;;;21.42;10.82;;;7.80;99.90;;;;;;5036165;28;20094;-80
2022/05/06 02:44:18;;;;;;;29.25;12.57;;;7.80;99.90;;;;;;5036073;28;20097;-79
2022/05/06 02:46:44;;;;;;;23.88;11.25;;;7.80;99.90;;;;;;5036303;28;20056;-78
2022/05/06 02:49:09;;;;;;;24.38;11.80;;;7.70;99.90;;;;;;5036190;28;20057;-78
2022/05/06 02:51:35;;;;;;;25.00;11.48;;;7.70;99.90;;;;;;5035823;28;20449;-80
2022/05/06 02:54:00;;;;;;;26.42;11.68;;;7.60;99.90;;;;;;5054245;28;20084;-78
2022/05/06 02:56:26;;;;;;;32.85;13.13;;;7.60;99.90;;;;;;5035754;28;20049;-78
2022/05/06 02:58:52;;;;;;;23.45;10.98;;;7.60;99.90;;;;;;5035494;28;20052;-78
2022/05/06 03:01:17;;;;;;;21.00;11.07;;;7.60;99.90;;;;;;5035152;28;20381;-79
2022/05/06 03:03:44;;;;;;;25.98;11.65;;;7.50;99.90;;;;;;5035609;28;20071;-79
2022/05/06 03:06:09;;;;;;;29.30;11.50;;;7.40;99.90;;;;;;5035520;28;20045;-78
2022/05/06 03:08:36;;;;;;;27.88;12.45;;;7.50;99.90;;;;;;5019126;28;20110;-79
2022/05/06 03:11:02;;;;;;;24.08;11.75;;;7.50;99.90;;;;;;5035493;28;20530;-78
2022/05/06 03:13:27;;;;;;;27.40;12.70;;;7.50;99.90;;;;;;5035306;28;20080;-79
2022/05/06 03:15:53;;;;;;;24.85;12.07;;;7.50;99.90;;;;;;5035699;28;20053;-78
2022/05/06 03:18:19;;;;;;;27.23;12.18;;;7.40;99.90;;;;;;5053270;28;20856;-78
2022/05/06 03:20:45;;;;;;;28.77;12.27;;;7.40;99.90;;;;;;5034665;28;20052;-78
2022/05/06 03:23:14;;;;;;;24.42;11.13;;;7.40;99.90;;;;;;5035661;28;20345;-78
2022/05/06 03:25:39;;;;;;;35.33;13.35;;;7.30;99.90;;;;;;5035632;28;20041;-78
2022/05/06 03:28:08;;;;;;;27.10;12.50;;;7.40;99.90;;;;;;5035325;28;20561;-78
2022/05/06 03:30:39;;;;;;;24.42;11.73;;;7.30;99.90;;;;;;5035217;28;20120;-78
2022/05/06 03:33:09;;;;;;;30.15;12.30;;;7.30;99.90;;;;;;5053118;28;20037;-78
2022/05/06 03:35:36;;;;;;;29.58;12.13;;;7.20;99.90;;;;;;5051945;28;20095;-78
2022/05/06 03:38:02;;;;;;;27.45;13.10;;;7.20;99.90;;;;;;5034563;28;20041;-78
2022/05/06 03:40:28;;;;;;;30.35;12.20;;;7.20;99.90;;;;;;5034632;28;20051;-80
2022/05/06 03:42:54;;;;;;;30.98;11.93;;;7.20;99.90;;;;;;5034944;28;20041;-78
2022/05/06 03:45:19;;;;;;;28.08;12.88;;;7.20;99.90;;;;;;5035006;28;20044;-78
2022/05/06 03:47:45;;;;;;;34.58;13.57;;;7.30;99.90;;;;;;5034939;28;20353;-78
2022/05/06 03:52:55;;;;;;;26.45;12.90;;;7.30;99.90;;;;;;5034607;28;20195;-78
2022/05/06 03:55:21;;;;;;;29.45;13.60;;;7.30;99.90;;;;;;5034536;28;20033;-79
2022/05/06 03:57:46;;;;;;;29.02;12.55;;;7.30;99.90;;;;;;5034425;28;20082;-78
2022/05/06 04:00:14;;;;;;;22.92;11.98;;;7.30;99.90;;;;;;5034793;28;20086;-78
2022/05/06 04:02:40;;;;;;;25.70;12.00;;;7.30;99.90;;;;;;5034639;28;20484;-78
2022/05/06 04:05:06;;;;;;;26.98;11.43;;;7.30;99.90;;;;;;5034925;28;20044;-78
2022/05/06 04:07:32;;;;;;;26.00;11.60;;;7.20;99.90;;;;;;5035028;28;20045;-78
2022/05/06 04:09:58;;;;;;;25.70;11.98;;;7.20;99.90;;;;;;5033808;28;20041;-78
2022/05/06 04:12:23;;;;;;;25.38;11.43;;;7.20;99.90;;;;;;5034261;28;20045;-78
2022/05/06 04:14:50;;;;;;;25.27;11.30;;;7.20;99.90;;;;;;5034311;28;20102;-78
2022/05/06 04:17:16;;;;;;;23.83;10.80;;;7.20;99.90;;;;;;5034396;28;20120;-79
2022/05/06 04:23:28;;;;;;;24.85;9.40;;;7.20;99.90;;;;;;5033765;28;20793;-78
2022/05/06 04:23:35;;;;;;;24.00;11.30;;;7.20;99.90;;;;;;5034346;28;20471;-79
2022/05/06 04:25:29;;;;;;;27.40;10.95;;;7.20;99.90;;;;;;5025475;28;20137;-79
2022/05/06 04:27:55;;;;;;;21.33;11.77;;;7.30;99.90;;;;;;5034005;28;20065;-78
2022/05/06 04:30:21;;;;;;;21.42;10.57;;;7.30;99.90;;;;;;5033581;28;20076;-78
2022/05/06 04:32:46;;;;;;;23.55;10.85;;;7.30;99.90;;;;;;5033848;28;20048;-78
2022/05/06 04:35:13;;;;;;;20.42;9.95;;;7.40;99.90;;;;;;5034028;28;20044;-80
2022/05/06 04:37:38;;;;;;;22.70;10.50;;;7.40;99.90;;;;;;5033762;28;20403;-78
2022/05/06 04:40:05;;;;;;;22.77;11.10;;;7.40;99.90;;;;;;5051448;28;20048;-78
2022/05/06 04:42:31;;;;;;;18.13;9.35;;;7.50;99.90;;;;;;5033923;28;20036;-78
2022/05/06 04:44:56;;;;;;;15.38;8.68;;;7.50;99.90;;;;;;5033537;28;20454;-78
2022/05/06 04:47:22;;;;;;;19.42;9.07;;;7.60;99.90;;;;;;5033201;28;20102;-78
2022/05/06 04:49:47;;;;;;;20.92;9.50;;;7.60;99.90;;;;;;5033787;28;20095;-78
2022/05/06 04:52:13;;;;;;;33.05;13.48;;;7.60;99.90;;;;;;5048947;28;20044;-78
2022/05/06 04:54:38;;;;;;;30.90;13.27;;;7.70;99.90;;;;;;5071581;28;20073;-80
2022/05/06 04:57:05;;;;;;;35.38;14.80;;;7.70;99.90;;;;;;5038679;28;20086;-78
2022/05/06 04:59:31;;;;;;;67.28;15.85;;;7.80;99.90;;;;;;5033099;28;20102;-79
2022/05/06 05:01:57;;;;;;;51.47;14.45;;;7.90;99.90;;;;;;5033502;28;20041;-78
2022/05/06 05:04:27;;;;;;;43.72;14.40;;;7.90;99.90;;;;;;5033211;28;20040;-79
2022/05/06 05:06:55;;;;;;;63.55;17.42;;;8.10;99.90;;;;;;5033403;28;20049;-81
2022/05/06 05:09:21;;;;;;;44.03;15.10;;;8.10;99.90;;;;;;5033181;28;20041;-79
2022/05/06 05:11:47;;;;;;;38.38;15.35;;;8.20;99.90;;;;;;5033145;28;20387;-76
2022/05/06 05:14:13;;;;;;;39.92;14.25;;;8.20;99.90;;;;;;5051120;28;20044;-78
2022/05/06 05:16:39;;;;;;;50.92;13.48;;;8.30;99.90;;;;;;5033157;28;20048;-79
2022/05/06 05:19:04;;;;;;;50.92;13.00;;;8.40;99.90;;;;;;5032948;28;20048;-78
2022/05/06 05:21:30;;;;;;;50.65;14.00;;;8.50;99.90;;;;;;5016481;28;20047;-78
2022/05/06 05:23:55;;;;;;;36.65;11.43;;;8.50;99.90;;;;;;5050983;28;20452;-78
2022/05/06 05:26:21;;;;;;;99.97;14.73;;;8.60;99.90;;;;;;5033059;28;20137;-78
2022/05/06 05:28:46;;;;;;;28.23;12.10;;;8.70;99.90;;;;;;5016822;28;20045;-78
2022/05/06 05:31:12;;;;;;;55.75;13.52;;;8.80;99.90;;;;;;5049246;28;20107;-78
2022/05/06 05:33:38;;;;;;;71.32;13.63;;;9.00;99.90;;;;;;5051908;28;20076;-78
2022/05/06 05:36:04;;;;;;;59.28;13.30;;;9.10;99.90;;;;;;5034777;28;20040;-79
2022/05/06 05:38:29;;;;;;;53.40;12.32;;;9.20;99.90;;;;;;5034889;28;20055;-78
2022/05/06 05:40:55;;;;;;;96.75;13.50;;;9.30;99.90;;;;;;5033287;28;20037;-78
2022/05/06 05:48:51;;;;;;;29.40;10.65;;;9.60;99.90;;;;;;5034974;28;20053;-78
2022/05/06 05:51:17;;;;;;;35.67;13.55;;;9.70;99.90;;;;;;5018796;28;20045;-78
2022/05/06 05:53:42;;;;;;;33.58;12.85;;;9.80;99.90;;;;;;5009502;28;20478;-79
2022/05/06 05:56:08;;;;;;;48.00;14.10;;;9.90;99.90;;;;;;4980280;28;20046;-79
2022/05/06 05:58:34;;;;;;;44.72;15.95;;;9.90;99.90;;;;;;4995448;28;20181;-79
2022/05/06 06:01:00;;;;;;;35.47;14.30;;;10.00;99.90;;;;;;4999683;28;20057;-79
2022/05/06 06:03:26;;;;;;;37.42;15.10;;;10.10;99.90;;;;;;5012716;28;20033;-79
2022/05/06 06:05:51;;;;;;;31.10;12.32;;;10.20;99.90;;;;;;5012377;28;20045;-79
2022/05/06 06:08:18;;;;;;;51.55;14.43;;;10.20;99.90;;;;;;5028358;28;20041;-79
2022/05/06 06:10:43;;;;;;;31.20;12.43;;;10.20;99.90;;;;;;5024944;28;20041;-80
2022/05/06 06:13:09;;;;;;;30.88;12.90;;;10.20;99.90;;;;;;5006960;28;20129;-79
2022/05/06 06:15:34;;;;;;;30.10;12.30;;;10.30;99.90;;;;;;5017226;28;20105;-79
2022/05/06 06:18:00;;;;;;;34.58;13.68;;;10.30;99.90;;;;;;5007783;28;20048;-80
2022/05/06 06:20:26;;;;;;;42.70;14.88;;;10.40;99.90;;;;;;5017453;28;20405;-80
2022/05/06 06:22:51;;;;;;;30.23;13.93;;;10.40;99.90;;;;;;5005397;28;20061;-79
2022/05/06 06:25:17;;;;;;;36.13;14.68;;;10.50;99.90;;;;;;5016403;28;20045;-79
2022/05/06 06:27:46;;;;;;;29.58;13.85;;;10.50;99.90;;;;;;5033704;28;20467;-80
2022/05/06 06:30:12;;;;;;;32.95;13.00;;;10.60;99.90;;;;;;5012535;28;20105;-80
2022/05/06 06:32:37;;;;;;;32.33;13.48;;;10.60;99.90;;;;;;5016735;28;20150;-80
2022/05/06 06:35:03;;;;;;;36.60;15.63;;;10.70;99.90;;;;;;5014529;28;20049;-80
2022/05/06 06:37:31;;;;;;;33.30;14.77;;;10.80;99.90;;;;;;5011786;28;20101;-77
2022/05/06 06:39:57;;;;;;;35.40;15.55;;;10.80;99.90;;;;;;5013027;28;20095;-79
2022/05/06 06:42:23;;;;;;;40.88;16.48;;;10.90;99.90;;;;;;4996469;28;20038;-78
2022/05/06 06:44:49;;;;;;;54.05;16.17;;;11.00;99.90;;;;;;5009649;28;20378;-78
2022/05/06 06:47:14;;;;;;;35.78;16.05;;;11.00;99.90;;;;;;5023851;28;20049;-79
2022/05/06 06:49:40;;;;;;;38.78;16.58;;;11.00;99.90;;;;;;5007763;28;20045;-79
2022/05/06 06:52:06;;;;;;;36.85;15.68;;;11.10;99.90;;;;;;5009978;28;20052;-79
2022/05/06 06:54:33;;;;;;;40.50;18.30;;;11.20;99.90;;;;;;5027874;28;20044;-79
2022/05/06 06:56:58;;;;;;;44.00;19.05;;;11.20;99.90;;;;;;5026437;28;20045;-79
2022/05/06 06:59:24;;;;;;;42.83;18.23;;;11.30;99.90;;;;;;5024711;28;20041;-80
2022/05/06 07:01:50;;;;;;;41.00;17.67;;;11.50;99.90;;;;;;5028011;28;20037;-79
2022/05/06 07:04:15;;;;;;;39.95;17.55;;;11.50;99.90;;;;;;5011143;28;20053;-79
2022/05/06 07:12:09;;;;;;;43.25;17.13;;;11.70;99.90;;;;;;5011337;28;20608;-79
2022/05/06 07:14:36;;;;;;;41.17;17.15;;;11.70;99.90;;;;;;5011463;28;20120;-78
2022/05/06 07:17:02;;;;;;;43.28;18.33;;;11.80;99.90;;;;;;5023412;28;20045;-78
2022/05/06 07:19:28;;;;;;;42.22;18.27;;;11.90;99.90;;;;;;5009229;28;20072;-78
2022/05/06 07:21:54;;;;;;;43.75;19.63;;;12.00;99.90;;;;;;5010651;28;20459;-78
2022/05/06 07:24:20;;;;;;;37.40;15.45;;;12.10;99.90;;;;;;5009024;28;20092;-78
2022/05/06 07:26:50;;;;;;;37.42;16.80;;;12.10;99.90;;;;;;5005084;28;20045;-78
2022/05/06 07:29:16;;;;;;;42.72;16.55;;;12.20;99.90;;;;;;5010786;28;20046;-78
2022/05/06 07:31:43;;;;;;;40.53;16.17;;;12.20;99.90;;;;;;5014869;28;20520;-77
2022/05/06 07:34:09;;;;;;;40.55;15.95;;;12.30;99.90;;;;;;5025802;28;20493;-78
2022/05/06 07:36:41;;;;;;;41.28;15.68;;;12.30;99.90;;;;;;5009472;28;20420;-78
2022/05/06 07:39:07;;;;;;;36.03;14.75;;;12.30;99.90;;;;;;5012254;28;20178;-78
2022/05/06 07:41:33;;;;;;;34.75;13.82;;;12.40;99.90;;;;;;5010395;28;20042;-78
2022/05/06 07:43:58;;;;;;;34.72;14.23;;;12.60;99.90;;;;;;5011384;28;20037;-78
2022/05/06 07:46:25;;;;;;;39.63;16.80;;;12.70;99.90;;;;;;5015213;28;20033;-78
2022/05/06 07:48:51;;;;;;;30.50;12.13;;;12.90;99.90;;;;;;5006804;28;20099;-78
2022/05/06 07:51:16;;;;;;;35.15;14.35;;;13.00;99.90;;;;;;5006643;28;20120;-78
2022/05/06 07:53:42;;;;;;;29.95;13.27;;;13.20;99.90;;;;;;5015927;28;20050;-78
2022/05/06 07:56:08;;;;;;;29.92;12.30;;;13.30;99.90;;;;;;5022107;28;20061;-79
2022/05/06 07:58:33;;;;;;;25.83;11.98;;;13.40;99.90;;;;;;5037205;28;20029;-78
2022/05/06 08:00:59;;;;;;;34.22;12.50;;;13.40;99.90;;;;;;5034270;28;20067;-78
2022/05/06 08:06:08;;;;;;;31.48;13.15;;;13.80;99.90;;;;;;5011870;28;20095;-78
2022/05/06 08:08:34;;;;;;;31.40;13.90;;;14.00;99.90;;;;;;5010761;28;20049;-78
2022/05/06 08:11:00;;;;;;;28.98;12.48;;;14.20;99.90;;;;;;5027137;28;20037;-78
2022/05/06 08:13:26;;;;;;;30.42;12.93;;;14.40;99.90;;;;;;5008817;28;20592;-80
2022/05/06 08:15:54;;;;;;;32.40;13.35;;;14.60;99.90;;;;;;4995522;28;20073;-78
2022/05/06 08:18:20;;;;;;;31.63;13.10;;;14.90;99.90;;;;;;5028028;28;20053;-78
2022/05/06 08:20:46;;;;;;;27.83;12.55;;;15.10;99.90;;;;;;5014500;28;20048;-78
2022/05/06 08:23:11;;;;;;;25.27;11.30;;;15.20;99.90;;;;;;5030255;28;20123;-79
2022/05/06 08:25:37;;;;;;;25.85;11.93;;;15.20;99.90;;;;;;4997271;28;20179;-78
2022/05/06 08:28:03;;;;;;;26.90;12.35;;;15.10;99.90;;;;;;5011968;28;20044;-78
2022/05/06 08:30:28;;;;;;;26.05;11.88;;;15.20;99.90;;;;;;5029847;28;20037;-78
2022/05/06 08:32:54;;;;;;;25.98;11.15;;;15.30;99.90;;;;;;4988743;28;20034;-79
2022/05/06 08:35:19;;;;;;;20.63;10.43;;;15.40;99.90;;;;;;5013819;28;20044;-78
2022/05/06 08:37:47;;;;;;;20.33;10.85;;;15.60;99.90;;;;;;4996050;28;20424;-78
2022/05/06 08:40:16;;;;;;;21.25;11.05;;;16.10;99.90;;;;;;5007295;28;20448;-79
2022/05/06 08:42:42;;;;;;;18.65;9.77;;;16.70;99.90;;;;;;5026363;28;20049;-79
2022/05/06 08:50:53;;;;;;;19.17;10.00;;;17.50;99.90;;;;;;5011679;28;20462;-78
2022/05/06 08:53:27;;;;;;;17.15;9.90;;;17.40;99.90;;;;;;5013248;28;20446;-79
2022/05/06 08:55:55;;;;;;;14.10;8.35;;;17.20;99.90;;;;;;5012336;28;20054;-78
2022/05/06 08:58:24;;;;;;;14.38;9.05;;;17.00;99.90;;;;;;5006391;28;20050;-78
2022/05/06 09:00:51;;;;;;;15.18;8.43;;;17.00;99.90;;;;;;5012185;28;20049;-74
2022/05/06 09:03:17;;;;;;;12.38;7.78;;;17.30;99.90;;;;;;5012472;28;20037;-78
2022/05/06 09:05:54;;;;;;;10.60;7.53;;;17.70;99.90;;;;;;5008954;28;20068;-78
2022/05/06 09:08:20;;;;;;;11.57;8.40;;;18.10;99.90;;;;;;5010454;28;20072;-78
2022/05/06 09:11:09;;;;;;;14.15;8.25;;;18.40;99.90;;;;;;5016293;28;20092;-78
2022/05/06 09:13:55;;;;;;;8.90;6.13;;;18.60;99.90;;;;;;5002909;28;20052;-78
2022/05/06 09:16:44;;;;;;;10.07;6.82;;;18.80;99.90;;;;;;5025382;28;20527;-78
2022/05/06 09:19:24;;;;;;;13.05;9.38;;;19.00;99.90;;;;;;5017453;28;20073;-77
2022/05/06 09:22:02;;;;;;;10.00;7.57;;;19.40;99.90;;;;;;5017455;28;20121;-78
2022/05/06 09:24:28;;;;;;;9.35;6.80;;;19.70;99.90;;;;;;5029328;28;20041;-78
2022/05/06 09:27:03;;;;;;;10.40;7.13;;;19.90;99.90;;;;;;5043885;28;20044;-78
2022/05/06 09:29:36;;;;;;;8.57;6.05;;;20.30;99.90;;;;;;5039804;28;20051;-79
2022/05/06 09:32:16;;;;;;;9.23;7.03;;;20.50;99.90;;;;;;5025067;28;20029;-82
2022/05/06 09:34:42;;;;;;;7.18;6.22;;;20.70;99.90;;;;;;5027288;28;20037;-80
2022/05/06 09:37:07;;;;;;;8.50;6.07;;;20.90;99.90;;;;;;5040498;28;20400;-80
2022/05/06 09:39:33;;;;;;;7.30;5.72;;;21.20;99.90;;;;;;5055793;28;20113;-81
2022/05/06 09:42:04;;;;;;;5.72;4.57;;;21.40;99.90;;;;;;5004536;28;20068;-81
2022/05/06 09:44:30;;;;;;;5.30;4.63;;;21.50;99.90;;;;;;5007080;28;20523;-81
2022/05/06 09:47:15;;;;;;;6.35;5.65;;;21.40;99.90;;;;;;5001872;28;20432;-81
2022/05/06 09:49:42;;;;;;;6.03;4.75;;;21.30;99.90;;;;;;4997909;28;20032;-79
2022/05/06 09:52:09;;;;;;;11.27;7.72;;;21.30;99.90;;;;;;5016672;28;20050;-80
2022/05/06 09:54:35;;;;;;;5.72;4.70;;;21.20;99.90;;;;;;5023810;28;20048;-79
2022/05/06 09:57:03;;;;;;;5.47;3.72;;;21.20;99.90;;;;;;5013314;28;20366;-79
2022/05/06 09:59:30;;;;;;;4.60;4.13;;;21.50;99.90;;;;;;5028831;28;20067;-79
2022/05/06 10:01:55;;;;;;;5.18;4.18;;;21.60;99.90;;;;;;5039911;28;20051;-79
2022/05/06 10:04:21;;;;;;;4.68;3.47;;;21.80;99.90;;;;;;5019405;28;20128;-79
2022/05/06 10:06:47;;;;;;;5.43;3.63;;;21.70;99.90;;;;;;4999321;28;20073;-79
2022/05/06 10:09:13;;;;;;;5.03;3.17;;;21.50;99.90;;;;;;5017137;28;20049;-78
2022/05/06 10:11:40;;;;;;;4.45;3.75;;;21.40;99.90;;;;;;4992475;28;20045;-79
2022/05/06 10:14:07;;;;;;;4.53;3.63;;;21.40;99.90;;;;;;5040735;28;20041;-80
2022/05/06 10:16:36;;;;;;;4.80;4.20;;;21.70;99.90;;;;;;5020050;28;20547;-79
2022/05/06 10:19:03;;;;;;;6.15;4.18;;;21.70;98.40;;;;;;5020853;28;20060;-79
2022/05/06 10:21:48;;;;;;;5.05;4.40;;;21.60;99.40;;;;;;5017320;28;20042;-79
2022/05/06 10:24:15;;;;;;;7.35;4.57;;;21.60;96.70;;;;;;5015056;28;20040;-78
2022/05/06 10:26:45;;;;;;;5.93;4.85;;;21.40;98.90;;;;;;5016611;28;20484;-79
2022/05/06 10:32:28;;;;;;;5.50;4.85;;;21.80;94.00;;;;;;5031626;28;20075;-79
2022/05/06 10:35:02;;;;;;;5.45;4.75;;;21.70;97.40;;;;;;5002750;28;20045;-80
2022/05/06 10:37:47;;;;;;;6.82;4.88;;;21.70;91.50;;;;;;5017968;28;20050;-80
2022/05/06 10:40:31;;;;;;;6.40;5.15;;;21.50;93.80;;;;;;5017988;28;20380;-79
2022/05/06 10:42:56;;;;;;;6.57;5.22;;;21.50;95.20;;;;;;5002841;28;20041;-79
2022/05/06 10:45:35;;;;;;;6.00;4.82;;;21.50;96.30;;;;;;5017588;28;20045;-80
2022/05/06 10:48:01;;;;;;;7.57;5.88;;;21.60;95.10;;;;;;5020497;28;20467;-79
2022/05/06 10:50:38;;;;;;;6.82;5.25;;;21.60;96.50;;;;;;5018604;28;20073;-79
2022/05/06 10:53:04;;;;;;;7.72;4.85;;;21.50;93.70;;;;;;5004453;28;20500;-79
2022/05/06 10:55:30;;;;;;;5.63;4.25;;;21.70;95.70;;;;;;5005703;28;20037;-79
2022/05/06 10:58:03;;;;;;;6.10;3.58;;;21.80;95.30;;;;;;5002651;28;20534;-79
2022/05/06 11:00:32;;;;;;;7.30;4.63;;;22.00;92.40;;;;;;5001323;28;20088;-80
2022/05/06 11:02:59;;;;;;;6.72;4.18;;;22.10;92.90;;;;;;5033728;28;20045;-79
2022/05/06 11:05:26;;;;;;;8.65;4.35;;;22.20;93.70;;;;;;5020242;28;20041;-79
2022/05/06 11:07:55;;;;;;;5.13;3.97;;;22.30;92.00;;;;;;5035525;28;20180;-79
2022/05/06 11:10:23;;;;;;;4.22;3.50;;;22.30;90.50;;;;;;5018588;28;20072;-79
2022/05/06 11:12:54;;;;;;;6.30;4.30;;;22.10;89.40;;;;;;5017137;28;20460;-83
2022/05/06 11:15:25;;;;;;;4.88;3.80;;;21.90;89.20;;;;;;5034293;28;20045;-80
2022/05/06 11:17:54;;;;;;;4.10;3.40;;;21.80;89.40;;;;;;5035799;28;20049;-80
2022/05/06 11:20:26;;;;;;;3.17;2.58;;;21.80;89.60;;;;;;5000275;28;20088;-80
2022/05/06 11:23:06;;;;;;;3.10;2.05;;;21.80;87.40;;;;;;5017155;28;20041;-81
2022/05/06 11:25:34;;;;;;;3.67;2.22;;;21.80;72.60;;;;;;5017109;28;20037;-79
2022/05/06 11:28:03;;;;;;;3.35;1.80;;;21.80;79.20;;;;;;5017196;28;20050;-80
2022/05/06 11:30:30;;;;;;;5.07;1.75;;;21.90;77.30;;;;;;5017576;28;20399;-79
2022/05/06 11:33:01;;;;;;;5.22;2.47;;;21.90;77.30;;;;;;5017690;28;20116;-82
2022/05/06 11:35:32;;;;;;;;;;;22.10;73.30;;;;;;5017973;28;20041;-80
2022/05/06 11:37:59;;;;;;;2.92;2.40;;;22.00;65.00;;;;;;5017397;28;19963;-80
2022/05/06 11:42:53;;;;;;;4.00;2.75;;;21.70;74.70;;;;;;5017921;28;20492;-80
2022/05/06 11:48:12;;;;;;;2.38;2.17;;;21.90;69.30;;;;;;5034210;28;20052;-83
2022/05/06 11:50:40;;;;;;;4.13;2.53;;;22.10;71.20;;;;;;5017688;28;20045;-83
2022/05/06 11:53:11;;;;;;;3.65;2.90;;;22.20;74.10;;;;;;5009059;28;20033;-83
2022/05/06 11:55:39;;;;;;;4.00;2.53;;;22.40;75.20;;;;;;5033648;28;20049;-83
2022/05/06 11:58:05;;;;;;;3.35;2.90;;;22.50;76.00;;;;;;5032860;28;20041;-82
2022/05/06 12:00:31;;;;;;;4.43;3.08;;;22.60;75.90;;;;;;5018033;28;20049;-81
2022/05/06 12:03:02;;;;;;;5.95;2.45;;;22.90;75.30;;;;;;5018303;28;20048;-82
2022/05/06 12:05:28;;;;;;;5.07;3.10;;;22.90;72.90;;;;;;5019408;28;20030;-82
2022/05/06 12:07:54;;;;;;;3.90;2.63;;;23.00;71.00;;;;;;5018458;28;20318;-82
2022/05/06 12:10:29;;;;;;;7.35;3.13;;;23.00;69.50;;;;;;5016954;28;20045;-83
2022/05/06 12:13:29;;;;;;;7.03;2.67;;;22.80;66.50;;;;;;5018248;28;20049;-82
2022/05/06 12:16:04;;;;;;;5.60;2.65;;;22.70;68.30;;;;;;5018634;28;20080;-82
2022/05/06 12:18:29;;;;;;;4.63;2.95;;;22.60;68.50;;;;;;5047692;28;20052;-80
2022/05/06 12:20:55;;;;;;;4.10;3.28;;;22.60;72.20;;;;;;5039613;28;20046;-85
2022/05/06 12:23:29;;;;;;;4.47;3.20;;;22.70;73.20;;;;;;5036998;28;20086;-82
2022/05/06 12:25:55;;;;;;;4.90;3.63;;;22.90;70.70;;;;;;5008878;28;20041;-80
2022/05/06 12:28:21;;;;;;;7.15;4.32;;;22.80;71.80;;;;;;4999813;28;20041;-80
2022/05/06 12:30:55;;;;;;;8.02;3.25;;;22.60;72.90;;;;;;5014756;28;20400;-80
2022/05/06 12:33:22;;;;;;;6.90;4.07;;;22.60;71.10;;;;;;5015794;28;20190;-80
2022/05/06 12:36:04;;;;;;;5.55;4.13;;;22.50;74.90;;;;;;5016883;28;20045;-81
2022/05/06 12:38:39;;;;;;;8.57;4.40;;;22.50;72.20;;;;;;5017007;28;20049;-81
2022/05/06 12:41:20;;;;;;;6.53;4.60;;;22.60;76.40;;;;;;5016140;28;20052;-81
2022/05/06 12:43:47;;;;;;;;;;;22.50;71.30;;;;;;5015137;28;20206;-79
2022/05/06 12:46:34;;;;;;;5.72;3.88;;;22.50;75.30;;;;;;5014776;28;20000;-79
2022/05/06 12:51:45;;;;;;;7.35;4.25;;;22.60;75.80;;;;;;5015732;28;20140;-79
2022/05/06 12:54:12;;;;;;;6.43;4.00;;;22.70;75.80;;;;;;4998766;28;20077;-80
2022/05/06 12:56:39;;;;;;;8.52;4.85;;;22.80;75.20;;;;;;4999012;28;20060;-80
2022/05/06 12:59:06;;;;;;;6.97;3.40;;;22.90;74.40;;;;;;4998556;28;20045;-79
2022/05/06 13:01:32;;;;;;;4.57;2.92;;;22.80;72.00;;;;;;5014851;28;20049;-79
2022/05/06 13:03:57;;;;;;;4.03;3.40;;;22.80;69.90;;;;;;5014839;28;20448;-77
2022/05/06 13:06:23;;;;;;;5.90;3.58;;;22.80;73.00;;;;;;4998006;28;20037;-79
2022/05/06 13:08:49;;;;;;;6.88;3.60;;;23.00;74.90;;;;;;5014369;28;20463;-79
2022/05/06 13:11:14;;;;;;;6.68;3.53;;;23.00;74.00;;;;;;5014452;28;20099;-79
2022/05/06 13:13:41;;;;;;;4.95;3.10;;;23.00;73.00;;;;;;5014433;28;20107;-80
2022/05/06 13:16:07;;;;;;;5.88;2.95;;;22.90;71.50;;;;;;5015544;28;20393;-82
2022/05/06 13:18:33;;;;;;;7.20;3.58;;;23.00;71.70;;;;;;5016028;28;20081;-81
2022/05/06 13:20:58;;;;;;;6.32;3.75;;;23.10;71.20;;;;;;4998571;28;20503;-81